Time;durP1;ratioP1;P1;durP2;ratioP2;P2;SDS_P1;SDS_P2;PMS_P1;PMS_P2;Temp;Humidity;BMP_temperature;BMP_pressure;BME280_temperature;BME280_humidity;BME280_pressure;Samples;Min_cycle;Max_cycle;Signal;HPM_P1;HPM_P2
2022/11/24 00:01:35;;;;;;;24.77;3.92;;;9.00;99.90;;;;;;5076192;28;20120;-78
2022/11/24 00:04:03;;;;;;;21.90;4.30;;;9.00;99.90;;;;;;5074735;28;20396;-78
2022/11/24 00:06:30;;;;;;;24.77;4.20;;;9.00;99.90;;;;;;5075542;28;20024;-78
2022/11/24 00:08:56;;;;;;;26.58;4.25;;;9.10;99.90;;;;;;5058068;28;20480;-78
2022/11/24 00:11:25;;;;;;;26.70;3.78;;;9.10;99.90;;;;;;5075814;28;20078;-78
2022/11/24 00:13:51;;;;;;;21.35;4.05;;;9.10;99.90;;;;;;5075750;28;20020;-78
2022/11/24 00:16:22;;;;;;;19.80;4.93;;;9.10;99.90;;;;;;5075503;28;20024;-78
2022/11/24 00:18:50;;;;;;;23.30;3.78;;;9.00;99.90;;;;;;5058037;28;20434;-77
2022/11/24 00:21:17;;;;;;;31.80;3.78;;;9.10;99.90;;;;;;5075356;28;20036;-78
2022/11/24 00:23:44;;;;;;;20.92;4.72;;;9.00;99.90;;;;;;5075801;28;20495;-78
2022/11/24 00:26:13;;;;;;;20.73;3.45;;;9.10;99.90;;;;;;5075469;28;20028;-78
2022/11/24 00:28:40;;;;;;;17.40;3.47;;;9.20;99.90;;;;;;5074444;28;20024;-78
2022/11/24 00:31:26;;;;;;;26.48;4.57;;;9.20;99.90;;;;;;5075661;28;20044;-78
2022/11/24 00:33:55;;;;;;;24.63;4.25;;;9.20;99.90;;;;;;5075602;28;20111;-78
2022/11/24 00:36:22;;;;;;;29.95;4.47;;;9.20;99.90;;;;;;5073915;28;20488;-78
2022/11/24 00:38:53;;;;;;;26.35;4.82;;;9.10;99.90;;;;;;5074178;28;20112;-78
2022/11/24 00:41:19;;;;;;;21.98;4.18;;;9.10;99.90;;;;;;5075331;28;20044;-79
2022/11/24 00:43:44;;;;;;;20.27;4.13;;;9.10;99.90;;;;;;5075261;28;20021;-78
2022/11/24 00:46:10;;;;;;;15.77;4.05;;;9.20;99.90;;;;;;5073722;28;20025;-78
2022/11/24 00:48:36;;;;;;;17.88;4.15;;;9.20;99.90;;;;;;5074834;28;20165;-79
2022/11/24 00:51:07;;;;;;;23.10;3.92;;;9.10;99.90;;;;;;5075092;28;20037;-79
2022/11/24 00:53:33;;;;;;;24.98;4.18;;;9.10;99.90;;;;;;5075067;28;20056;-78
2022/11/24 00:56:02;;;;;;;20.25;3.08;;;9.10;99.90;;;;;;5075038;28;20112;-78
2022/11/24 00:58:28;;;;;;;27.02;5.03;;;9.10;99.90;;;;;;5074992;28;20062;-78
2022/11/24 01:00:55;;;;;;;27.92;5.45;;;9.10;99.90;;;;;;5074874;28;20047;-78
2022/11/24 01:03:21;;;;;;;24.90;4.47;;;9.10;99.90;;;;;;5056828;28;20028;-78
2022/11/24 01:05:47;;;;;;;26.10;4.95;;;9.10;99.90;;;;;;5073536;28;20063;-78
2022/11/24 01:08:13;;;;;;;20.50;4.13;;;9.10;99.90;;;;;;5073574;28;20050;-78
2022/11/24 01:10:39;;;;;;;27.48;4.07;;;9.20;99.90;;;;;;5074978;28;20086;-78
2022/11/24 01:13:05;;;;;;;19.63;4.47;;;9.20;99.90;;;;;;5074854;28;20028;-77
2022/11/24 01:15:34;;;;;;;23.08;3.97;;;9.30;99.90;;;;;;5074705;28;20024;-77
2022/11/24 01:18:00;;;;;;;19.55;3.65;;;9.40;99.90;;;;;;5074630;28;20115;-78
2022/11/24 01:20:26;;;;;;;26.20;4.60;;;9.30;99.90;;;;;;5073872;28;20120;-78
2022/11/24 01:22:51;;;;;;;20.60;4.00;;;9.30;99.90;;;;;;5073667;28;20062;-78
2022/11/24 01:25:17;;;;;;;32.25;4.93;;;9.30;99.90;;;;;;5074672;28;20021;-78
2022/11/24 01:27:43;;;;;;;18.50;3.60;;;9.40;99.90;;;;;;5074674;28;20461;-78
2022/11/24 01:30:10;;;;;;;32.78;6.35;;;9.50;99.90;;;;;;5074487;28;20020;-78
2022/11/24 01:32:36;;;;;;;27.30;4.43;;;9.50;99.90;;;;;;5073113;28;20083;-78
2022/11/24 01:35:05;;;;;;;25.85;4.65;;;9.50;99.90;;;;;;5072850;28;20154;-78
2022/11/24 01:37:32;;;;;;;25.98;5.00;;;9.40;99.90;;;;;;5074189;28;20109;-78
2022/11/24 01:39:57;;;;;;;29.15;5.78;;;9.40;99.90;;;;;;5074181;28;20037;-78
2022/11/24 01:42:23;;;;;;;26.38;5.22;;;9.50;99.90;;;;;;5074095;28;20028;-78
2022/11/24 01:45:41;;;;;;;30.58;5.60;;;9.50;99.90;;;;;;5074274;28;20032;-78
2022/11/24 01:48:15;;;;;;;22.88;5.07;;;9.60;99.90;;;;;;5053046;28;20490;-78
2022/11/24 01:50:42;;;;;;;27.20;4.15;;;9.70;99.90;;;;;;5069516;28;20104;-78
2022/11/24 01:53:09;;;;;;;35.42;6.47;;;9.60;99.90;;;;;;5073984;28;20524;-78
2022/11/24 01:55:38;;;;;;;29.88;4.95;;;9.60;99.90;;;;;;5073961;28;20086;-78
2022/11/24 01:58:18;;;;;;;32.67;6.22;;;9.60;99.90;;;;;;5073854;28;20078;-78
2022/11/24 02:00:44;;;;;;;38.70;5.15;;;9.50;99.90;;;;;;5067090;28;20042;-78
2022/11/24 02:03:19;;;;;;;44.97;6.82;;;9.50;99.90;;;;;;5073032;28;20021;-78
2022/11/24 02:05:49;;;;;;;28.60;4.78;;;9.60;99.90;;;;;;5074010;28;20384;-78
2022/11/24 02:08:41;;;;;;;25.17;5.05;;;9.60;99.90;;;;;;5073502;28;20024;-78
2022/11/24 02:11:07;;;;;;;34.90;7.53;;;9.50;99.90;;;;;;5073726;28;20046;-78
2022/11/24 02:13:36;;;;;;;37.63;6.35;;;9.60;99.90;;;;;;5073613;28;20074;-78
2022/11/24 02:16:06;;;;;;;29.90;6.43;;;9.70;99.90;;;;;;5071979;28;20050;-78
2022/11/24 02:18:32;;;;;;;31.17;5.43;;;9.70;99.90;;;;;;5073719;28;20024;-78
2022/11/24 02:20:59;;;;;;;26.63;5.50;;;9.60;99.90;;;;;;5072426;28;20521;-78
2022/11/24 02:23:43;;;;;;;31.05;6.82;;;9.50;99.90;;;;;;5073548;28;20025;-78
2022/11/24 02:26:42;;;;;;;38.47;5.97;;;9.50;99.90;;;;;;5075318;28;20021;-78
2022/11/24 02:29:10;;;;;;;30.45;6.95;;;9.50;99.90;;;;;;5073513;28;20040;-79
2022/11/24 02:31:36;;;;;;;26.83;5.53;;;9.30;99.90;;;;;;5072955;28;20384;-79
2022/11/24 02:34:02;;;;;;;27.98;5.03;;;9.20;99.90;;;;;;5063413;28;20013;-79
2022/11/24 02:36:27;;;;;;;33.80;6.47;;;9.20;99.90;;;;;;5072972;28;20046;-80
2022/11/24 02:38:53;;;;;;;26.75;5.22;;;9.20;99.90;;;;;;5072977;28;20035;-79
2022/11/24 02:41:21;;;;;;;20.08;4.05;;;9.30;99.90;;;;;;5058751;28;20127;-79
2022/11/24 02:43:54;;;;;;;28.42;5.43;;;9.30;99.90;;;;;;5072292;28;20068;-79
2022/11/24 02:46:20;;;;;;;19.15;3.95;;;9.20;99.90;;;;;;5055089;28;20020;-80
2022/11/24 02:48:46;;;;;;;29.55;4.15;;;9.10;99.90;;;;;;5071702;28;20469;-79
2022/11/24 02:51:12;;;;;;;29.65;5.05;;;9.10;99.90;;;;;;5071902;28;20036;-78
2022/11/24 02:53:38;;;;;;;22.05;3.58;;;9.20;99.90;;;;;;5072627;28;20555;-80
2022/11/24 02:56:05;;;;;;;24.30;3.50;;;9.00;99.90;;;;;;5071747;28;20396;-79
2022/11/24 02:58:30;;;;;;;21.50;3.95;;;8.90;99.90;;;;;;5072901;28;20024;-79
2022/11/24 03:00:56;;;;;;;10.88;2.63;;;8.90;99.90;;;;;;5071330;28;20044;-79
2022/11/24 03:03:23;;;;;;;12.80;2.25;;;8.80;99.90;;;;;;5072751;28;20024;-80
2022/11/24 03:05:49;;;;;;;7.82;2.17;;;8.80;99.90;;;;;;5072726;28;20020;-79
2022/11/24 03:08:15;;;;;;;10.93;2.00;;;8.70;99.90;;;;;;5073528;28;20028;-79
2022/11/24 03:10:40;;;;;;;12.02;1.80;;;8.60;99.90;;;;;;5071660;28;20404;-79
2022/11/24 03:13:06;;;;;;;12.25;2.30;;;8.60;99.90;;;;;;5072694;28;20033;-79
2022/11/24 03:15:32;;;;;;;11.45;2.08;;;8.50;99.90;;;;;;5072408;28;20027;-80
2022/11/24 03:17:58;;;;;;;11.00;2.60;;;8.60;99.90;;;;;;5072702;28;20120;-80
2022/11/24 03:20:24;;;;;;;10.65;2.83;;;8.50;99.90;;;;;;5071498;28;20127;-79
2022/11/24 03:22:50;;;;;;;9.48;2.25;;;8.50;99.90;;;;;;5072944;28;20032;-80
2022/11/24 03:25:17;;;;;;;11.70;2.40;;;8.30;99.90;;;;;;5072991;28;20477;-78
2022/11/24 03:27:43;;;;;;;10.90;2.60;;;8.40;99.90;;;;;;5071748;28;20473;-78
2022/11/24 03:30:09;;;;;;;9.18;2.08;;;8.40;99.90;;;;;;5072538;28;20020;-79
2022/11/24 03:32:35;;;;;;;7.63;1.95;;;8.40;99.90;;;;;;5072991;28;20029;-79
2022/11/24 03:35:01;;;;;;;7.18;1.42;;;8.30;99.90;;;;;;5072011;28;20107;-79
2022/11/24 03:37:27;;;;;;;4.70;1.45;;;8.30;99.90;;;;;;5072784;28;20040;-78
2022/11/24 03:39:52;;;;;;;9.02;1.80;;;8.20;99.90;;;;;;5071229;28;20028;-79
2022/11/24 03:42:18;;;;;;;5.95;1.17;;;8.30;99.90;;;;;;5072578;28;20357;-78
2022/11/24 03:44:44;;;;;;;5.63;1.27;;;8.40;99.90;;;;;;5072384;28;20082;-79
2022/11/24 03:47:11;;;;;;;8.15;1.48;;;8.30;99.90;;;;;;5073071;28;20074;-79
2022/11/24 03:49:37;;;;;;;9.00;1.30;;;8.30;99.90;;;;;;5072422;28;20423;-79
2022/11/24 03:52:03;;;;;;;4.90;1.30;;;8.30;99.90;;;;;;5071333;28;20042;-79
2022/11/24 03:54:29;;;;;;;7.20;1.40;;;8.40;99.90;;;;;;5071294;28;20028;-79
2022/11/24 03:56:55;;;;;;;3.22;1.08;;;8.30;99.90;;;;;;5072096;28;20033;-78
2022/11/24 03:59:21;;;;;;;4.43;1.48;;;8.30;99.90;;;;;;5072391;28;20021;-80
2022/11/24 04:01:46;;;;;;;5.38;1.23;;;8.30;99.90;;;;;;5072138;28;20032;-79
2022/11/24 04:04:12;;;;;;;6.20;1.00;;;8.20;99.90;;;;;;5071293;28;20428;-80
2022/11/24 04:06:39;;;;;;;3.72;0.73;;;8.20;99.90;;;;;;5072149;28;20036;-80
2022/11/24 04:09:05;;;;;;;7.53;1.38;;;8.10;99.90;;;;;;5070753;28;20023;-79
2022/11/24 04:14:15;;;;;;;4.70;1.13;;;7.90;99.90;;;;;;5069805;28;20070;-79
2022/11/24 04:16:41;;;;;;;7.47;2.10;;;8.10;99.90;;;;;;5072014;28;20036;-79
2022/11/24 04:19:06;;;;;;;6.03;1.20;;;8.10;99.90;;;;;;5072086;28;20032;-80
2022/11/24 04:21:32;;;;;;;5.70;1.15;;;8.10;99.90;;;;;;5071979;28;20456;-80
2022/11/24 04:23:58;;;;;;;3.85;1.65;;;8.10;99.90;;;;;;5071837;28;20032;-79
2022/11/24 04:26:24;;;;;;;8.57;1.90;;;8.20;99.90;;;;;;5072005;28;20081;-79
2022/11/24 04:28:49;;;;;;;7.40;1.27;;;8.10;99.90;;;;;;5075501;28;20104;-79
2022/11/24 04:31:18;;;;;;;5.20;1.10;;;8.20;99.90;;;;;;5075371;28;20112;-80
2022/11/24 04:33:43;;;;;;;9.60;1.35;;;8.20;99.90;;;;;;5075318;28;20119;-80
2022/11/24 04:36:09;;;;;;;9.00;1.40;;;8.30;99.90;;;;;;5075226;28;20056;-79
2022/11/24 04:38:35;;;;;;;12.85;1.80;;;8.30;99.90;;;;;;5075512;28;20031;-80
2022/11/24 04:41:04;;;;;;;11.25;1.70;;;8.30;99.90;;;;;;5075013;28;20037;-80
2022/11/24 04:43:31;;;;;;;5.97;1.85;;;8.30;99.90;;;;;;5075389;28;20369;-80
2022/11/24 04:46:00;;;;;;;13.65;1.92;;;8.30;99.90;;;;;;5075045;28;20036;-79
2022/11/24 04:48:26;;;;;;;7.78;1.13;;;8.30;99.90;;;;;;5075357;28;20111;-79
2022/11/24 04:50:52;;;;;;;6.85;1.70;;;8.30;99.90;;;;;;5074999;28;20570;-80
2022/11/24 04:53:18;;;;;;;11.77;1.70;;;8.30;99.90;;;;;;5075135;28;20056;-79
2022/11/24 04:55:44;;;;;;;4.05;1.00;;;8.30;99.90;;;;;;5074912;28;20028;-79
2022/11/24 04:58:10;;;;;;;6.80;1.20;;;8.30;99.90;;;;;;5075172;28;20052;-79
2022/11/24 05:00:37;;;;;;;7.53;1.42;;;8.30;99.90;;;;;;5074847;28;20468;-79
2022/11/24 05:03:03;;;;;;;9.65;1.73;;;8.20;99.90;;;;;;5075029;28;20028;-80
2022/11/24 05:05:29;;;;;;;3.60;1.42;;;8.20;99.90;;;;;;5074655;28;20028;-79
2022/11/24 05:07:57;;;;;;;8.73;1.35;;;8.20;99.90;;;;;;5074973;28;20023;-79
2022/11/24 05:10:35;;;;;;;5.45;1.65;;;8.30;99.90;;;;;;5073374;28;20024;-79
2022/11/24 05:13:06;;;;;;;4.90;1.15;;;8.30;99.90;;;;;;5075035;28;20082;-79
2022/11/24 05:15:32;;;;;;;10.77;1.55;;;8.20;99.90;;;;;;5074629;28;20119;-79
2022/11/24 05:17:58;;;;;;;7.57;1.23;;;8.10;99.90;;;;;;5074543;28;20032;-79
2022/11/24 05:20:24;;;;;;;13.02;1.45;;;8.20;99.90;;;;;;5074804;28;20548;-79
2022/11/24 05:22:50;;;;;;;9.93;1.15;;;8.20;99.90;;;;;;5074460;28;20477;-79
2022/11/24 05:25:16;;;;;;;6.82;1.65;;;8.20;99.90;;;;;;5074520;28;20032;-79
2022/11/24 05:27:42;;;;;;;13.05;2.10;;;8.20;99.90;;;;;;5074326;28;20036;-79
2022/11/24 05:30:08;;;;;;;11.27;1.50;;;8.20;99.90;;;;;;5074705;28;20028;-78
2022/11/24 05:32:34;;;;;;;9.77;1.58;;;8.10;99.90;;;;;;5074189;28;20024;-78
2022/11/24 05:35:01;;;;;;;10.73;1.17;;;8.10;99.90;;;;;;5074579;28;20492;-79
2022/11/24 05:37:30;;;;;;;9.73;2.20;;;8.10;99.90;;;;;;5074153;28;20033;-79
2022/11/24 05:39:56;;;;;;;10.85;2.42;;;8.10;99.90;;;;;;5073044;28;20017;-78
2022/11/24 05:42:39;;;;;;;9.55;2.50;;;8.10;99.90;;;;;;5073053;28;20024;-78
2022/11/24 05:45:11;;;;;;;12.77;2.17;;;8.00;99.90;;;;;;5074226;28;20017;-78
2022/11/24 05:47:39;;;;;;;13.35;5.43;;;8.00;99.90;;;;;;5074500;28;20037;-79
2022/11/24 05:50:05;;;;;;;12.50;3.60;;;8.00;99.90;;;;;;5074054;28;20028;-78
2022/11/24 05:52:31;;;;;;;11.65;1.75;;;8.10;99.90;;;;;;5073915;28;20377;-79
2022/11/24 05:54:57;;;;;;;10.57;2.05;;;8.10;99.90;;;;;;5073723;28;20105;-78
2022/11/24 05:57:24;;;;;;;12.35;1.90;;;8.00;99.90;;;;;;5075036;28;20025;-79
2022/11/24 05:59:49;;;;;;;13.45;2.05;;;8.00;99.90;;;;;;5074592;28;20032;-80
2022/11/24 06:02:15;;;;;;;6.35;1.40;;;8.10;99.90;;;;;;5074008;28;20024;-80
2022/11/24 06:04:41;;;;;;;10.45;1.33;;;8.00;99.90;;;;;;5073845;28;20048;-79
2022/11/24 06:07:09;;;;;;;12.98;2.33;;;8.00;99.90;;;;;;5074058;28;20047;-78
2022/11/24 06:09:36;;;;;;;8.70;2.00;;;8.00;99.90;;;;;;5073550;28;20387;-78
2022/11/24 06:12:03;;;;;;;12.35;1.42;;;7.90;99.90;;;;;;5073411;28;20461;-76
2022/11/24 06:14:29;;;;;;;11.15;2.00;;;8.00;99.90;;;;;;5072712;28;20532;-80
2022/11/24 06:16:55;;;;;;;9.88;1.83;;;7.90;99.90;;;;;;5071879;28;20104;-79
2022/11/24 06:19:20;;;;;;;15.23;2.08;;;8.00;99.90;;;;;;5073621;28;20039;-78
2022/11/24 06:21:46;;;;;;;13.77;2.30;;;8.00;99.90;;;;;;5062468;28;20119;-79
2022/11/24 06:24:13;;;;;;;13.48;1.98;;;8.00;99.90;;;;;;5070450;28;20032;-77
2022/11/24 06:26:39;;;;;;;20.95;2.30;;;7.90;99.90;;;;;;5073462;28;20082;-78
2022/11/24 06:29:05;;;;;;;10.73;2.10;;;8.00;99.90;;;;;;5073051;28;20136;-78
2022/11/24 06:31:31;;;;;;;13.10;2.45;;;7.90;99.90;;;;;;5073905;28;20020;-78
2022/11/24 06:33:59;;;;;;;16.05;2.65;;;8.00;99.90;;;;;;5064061;28;20033;-78
2022/11/24 06:36:26;;;;;;;14.15;2.90;;;7.90;99.90;;;;;;5072954;28;20032;-77
2022/11/24 06:38:52;;;;;;;14.55;3.60;;;8.00;99.90;;;;;;5073315;28;20025;-77
2022/11/24 06:41:18;;;;;;;18.52;3.38;;;8.00;99.90;;;;;;5074545;28;20037;-77
2022/11/24 06:43:44;;;;;;;7.97;2.00;;;8.00;99.90;;;;;;5072744;28;20032;-78
2022/11/24 06:46:10;;;;;;;11.68;2.03;;;7.90;99.90;;;;;;5073451;28;20043;-78
2022/11/24 06:48:36;;;;;;;15.45;2.15;;;7.90;99.90;;;;;;5051034;28;20036;-78
2022/11/24 06:51:05;;;;;;;11.65;1.75;;;7.80;99.90;;;;;;5059683;28;20047;-78
2022/11/24 06:53:32;;;;;;;13.57;2.83;;;7.80;99.90;;;;;;5058829;28;20032;-77
2022/11/24 06:55:59;;;;;;;17.50;2.78;;;7.80;99.90;;;;;;5041810;28;20025;-77
2022/11/24 06:58:25;;;;;;;15.88;2.88;;;7.80;99.90;;;;;;5052733;28;20476;-78
2022/11/24 07:00:51;;;;;;;7.03;2.65;;;7.90;99.90;;;;;;5055577;28;20039;-78
2022/11/24 07:03:18;;;;;;;20.90;3.90;;;7.90;99.90;;;;;;5062121;28;20024;-78
2022/11/24 07:05:44;;;;;;;14.77;3.00;;;8.00;99.90;;;;;;5052979;28;20094;-78
2022/11/24 07:08:10;;;;;;;11.05;2.83;;;7.90;99.90;;;;;;5053159;28;20048;-79
2022/11/24 07:10:36;;;;;;;17.58;2.53;;;7.90;99.90;;;;;;5061206;28;20036;-78
2022/11/24 07:13:05;;;;;;;17.20;3.38;;;7.90;99.90;;;;;;5060580;28;20021;-78
2022/11/24 07:15:31;;;;;;;24.45;3.33;;;7.90;99.90;;;;;;5054700;28;20016;-79
2022/11/24 07:17:56;;;;;;;19.63;4.20;;;8.00;99.90;;;;;;5052685;28;20036;-78
2022/11/24 07:20:22;;;;;;;18.33;4.28;;;7.90;99.90;;;;;;5057707;28;20128;-79
2022/11/24 07:22:48;;;;;;;7.85;1.95;;;7.80;99.90;;;;;;5055547;28;20025;-78
2022/11/24 07:25:13;;;;;;;18.05;3.30;;;7.80;99.90;;;;;;5033273;28;20024;-78
2022/11/24 07:27:40;;;;;;;13.98;2.90;;;7.80;99.90;;;;;;5050298;28;20439;-78
2022/11/24 07:30:07;;;;;;;18.08;2.83;;;7.80;99.90;;;;;;5031668;28;20026;-78
2022/11/24 07:32:33;;;;;;;18.50;3.47;;;7.80;99.90;;;;;;5058465;28;20070;-79
2022/11/24 07:34:58;;;;;;;18.38;3.80;;;8.00;99.90;;;;;;5056249;28;20491;-78
2022/11/24 07:37:25;;;;;;;20.27;2.92;;;7.90;99.90;;;;;;5056770;28;20038;-79
2022/11/24 07:39:51;;;;;;;13.90;3.60;;;7.90;99.90;;;;;;5043376;28;20160;-79
2022/11/24 07:42:16;;;;;;;21.17;3.90;;;7.90;99.90;;;;;;5062374;28;20036;-78
2022/11/24 07:44:42;;;;;;;14.18;3.22;;;7.90;99.90;;;;;;5070514;28;20485;-78
2022/11/24 07:47:08;;;;;;;14.25;2.97;;;8.00;99.90;;;;;;5071894;28;20052;-78
2022/11/24 07:49:34;;;;;;;17.50;2.80;;;7.90;99.90;;;;;;5056627;28;20021;-78
2022/11/24 07:52:00;;;;;;;16.10;2.97;;;7.90;99.90;;;;;;5052976;28;20032;-78
2022/11/24 07:54:25;;;;;;;18.20;2.85;;;7.80;99.90;;;;;;5054298;28;20079;-78
2022/11/24 07:56:51;;;;;;;20.73;4.57;;;7.80;99.90;;;;;;5050561;28;20043;-78
2022/11/24 07:59:17;;;;;;;18.85;3.40;;;7.80;99.90;;;;;;5062961;28;20111;-78
2022/11/24 08:01:43;;;;;;;22.00;3.85;;;7.80;99.90;;;;;;5055915;28;20059;-78
2022/11/24 08:04:08;;;;;;;21.25;4.60;;;7.90;99.90;;;;;;5055114;28;20032;-79
2022/11/24 08:06:34;;;;;;;14.77;3.08;;;7.90;99.90;;;;;;5056233;28;20024;-78
2022/11/24 08:09:00;;;;;;;19.67;3.67;;;7.80;99.90;;;;;;5064383;28;20025;-77
2022/11/24 08:11:26;;;;;;;17.60;3.53;;;7.90;99.90;;;;;;5065888;28;20036;-79
2022/11/24 08:13:52;;;;;;;22.15;3.80;;;8.00;99.90;;;;;;5053291;28;20451;-78
2022/11/24 08:16:19;;;;;;;21.38;3.25;;;8.00;99.90;;;;;;5058625;28;20029;-78
2022/11/24 08:18:52;;;;;;;23.77;4.00;;;8.00;99.90;;;;;;5054571;28;20079;-78
2022/11/24 08:21:19;;;;;;;19.73;4.18;;;8.00;99.90;;;;;;5049585;28;20128;-79
2022/11/24 08:23:45;;;;;;;24.80;4.45;;;8.00;99.90;;;;;;5061377;28;20036;-79
2022/11/24 08:26:16;;;;;;;16.55;2.85;;;8.10;99.90;;;;;;5056143;28;20076;-79
2022/11/24 08:28:43;;;;;;;23.08;4.07;;;8.10;99.90;;;;;;5057617;28;20381;-79
2022/11/24 08:31:19;;;;;;;22.98;3.97;;;8.20;99.90;;;;;;5057148;28;20045;-79
2022/11/24 08:33:45;;;;;;;17.95;2.83;;;8.10;99.90;;;;;;5063981;28;20464;-79
2022/11/24 08:36:15;;;;;;;17.98;3.97;;;8.20;99.90;;;;;;5052318;28;20033;-79
2022/11/24 08:38:41;;;;;;;17.45;3.80;;;8.20;99.90;;;;;;5058964;28;20025;-79
2022/11/24 08:41:09;;;;;;;12.73;2.63;;;8.40;99.90;;;;;;5056954;28;20139;-79
2022/11/24 08:43:35;;;;;;;19.83;4.07;;;8.30;99.90;;;;;;5056551;28;20095;-79
2022/11/24 08:46:03;;;;;;;14.95;3.55;;;8.40;99.90;;;;;;5069132;28;20195;-79
2022/11/24 08:48:29;;;;;;;18.15;3.65;;;8.50;99.90;;;;;;5065441;28;20023;-79
2022/11/24 08:50:56;;;;;;;21.33;5.38;;;8.60;99.90;;;;;;5074392;28;20115;-79
2022/11/24 08:53:22;;;;;;;20.58;5.35;;;8.80;99.90;;;;;;5074276;28;20016;-79
2022/11/24 08:55:48;;;;;;;23.17;4.18;;;8.80;99.90;;;;;;5072956;28;20043;-80
2022/11/24 08:58:13;;;;;;;14.73;4.13;;;8.90;99.90;;;;;;5074325;28;20036;-79
2022/11/24 09:00:39;;;;;;;20.33;3.70;;;9.10;99.90;;;;;;5056167;28;20044;-77
2022/11/24 09:03:05;;;;;;;18.58;4.80;;;9.30;99.90;;;;;;5047719;28;20020;-79
2022/11/24 09:05:32;;;;;;;20.77;4.20;;;9.20;99.90;;;;;;5054002;28;20041;-78
2022/11/24 09:07:57;;;;;;;6.97;2.35;;;9.30;99.90;;;;;;5057083;28;20059;-77
2022/11/24 09:10:23;;;;;;;19.20;4.03;;;9.20;99.90;;;;;;5052901;28;20025;-79
2022/11/24 09:12:50;;;;;;;18.80;3.53;;;9.10;99.90;;;;;;5054312;28;20456;-79
2022/11/24 09:15:17;;;;;;;17.60;3.13;;;9.30;99.90;;;;;;5061803;28;20043;-78
2022/11/24 09:17:43;;;;;;;17.15;3.03;;;9.40;99.90;;;;;;5053627;28;20041;-77
2022/11/24 09:20:09;;;;;;;19.80;4.30;;;9.40;99.90;;;;;;5048554;28;20078;-77
2022/11/24 09:22:36;;;;;;;17.67;3.55;;;9.30;99.90;;;;;;5047615;28;20123;-77
2022/11/24 09:25:04;;;;;;;18.20;3.50;;;9.40;99.90;;;;;;5056850;28;20027;-77
2022/11/24 09:27:30;;;;;;;17.30;3.05;;;9.70;99.90;;;;;;5060065;28;20032;-78
2022/11/24 09:29:55;;;;;;;18.80;3.83;;;9.80;99.90;;;;;;5053849;28;20036;-78
2022/11/24 09:32:21;;;;;;;17.27;4.47;;;9.80;99.90;;;;;;5051933;28;20053;-78
2022/11/24 09:34:49;;;;;;;17.58;3.95;;;10.20;99.90;;;;;;5052355;28;20147;-79
2022/11/24 09:37:15;;;;;;;16.13;3.42;;;10.30;99.90;;;;;;5051235;28;20036;-79
2022/11/24 09:39:41;;;;;;;16.73;4.10;;;10.10;99.90;;;;;;5054043;28;20106;-80
2022/11/24 09:42:26;;;;;;;17.25;3.78;;;10.50;99.90;;;;;;5058714;28;20484;-78
2022/11/24 09:45:12;;;;;;;21.50;4.53;;;10.50;99.90;;;;;;5042864;28;20363;-79
2022/11/24 09:47:44;;;;;;;17.95;4.25;;;10.50;99.90;;;;;;5062933;28;20396;-79
2022/11/24 09:50:13;;;;;;;22.02;6.80;;;10.70;99.90;;;;;;5072772;28;20441;-79
2022/11/24 09:52:45;;;;;;;20.02;6.57;;;10.70;99.90;;;;;;5072766;28;20178;-79
2022/11/24 09:55:43;;;;;;;20.17;5.03;;;10.80;99.90;;;;;;5073765;28;20029;-77
2022/11/24 09:58:29;;;;;;;16.75;4.00;;;10.60;99.90;;;;;;5038446;28;21337;-78
2022/11/24 10:00:55;;;;;;;18.70;4.65;;;10.60;99.90;;;;;;5073668;28;20432;-77
2022/11/24 10:03:42;;;;;;;16.65;3.03;;;11.20;99.90;;;;;;5073687;28;20123;-76
2022/11/24 10:06:26;;;;;;;19.83;3.47;;;11.30;99.90;;;;;;5073579;28;20480;-77
2022/11/24 10:09:12;;;;;;;19.55;3.95;;;11.30;99.90;;;;;;5072641;28;20052;-77
2022/11/24 10:11:57;;;;;;;16.20;4.03;;;11.30;99.90;;;;;;5062287;28;20064;-78
2022/11/24 10:14:57;;;;;;;15.25;3.28;;;11.40;99.90;;;;;;5072233;28;20063;-79
2022/11/24 10:17:47;;;;;;;17.98;4.18;;;11.80;99.90;;;;;;5073249;28;20034;-79
2022/11/24 10:20:37;;;;;;;22.92;4.63;;;12.10;99.90;;;;;;5055696;28;20029;-79
2022/11/24 10:23:25;;;;;;;15.15;3.53;;;11.90;99.90;;;;;;5073352;28;20068;-78
2022/11/24 10:25:56;;;;;;;15.52;3.83;;;12.20;99.90;;;;;;5072818;28;20036;-76
2022/11/24 10:28:33;;;;;;;25.58;4.05;;;12.30;99.90;;;;;;5073286;28;20032;-76
2022/11/24 10:31:21;;;;;;;13.98;4.28;;;11.90;99.90;;;;;;5073485;28;20111;-78
2022/11/24 10:33:47;;;;;;;14.43;3.53;;;11.90;99.90;;;;;;5072170;28;20029;-78
2022/11/24 10:36:40;;;;;;;17.08;3.80;;;12.20;99.90;;;;;;5051008;28;20029;-78
2022/11/24 10:39:30;;;;;;;17.27;4.18;;;12.50;99.90;;;;;;5061173;28;20086;-78
2022/11/24 10:42:01;;;;;;;16.88;3.63;;;12.40;99.90;;;;;;5060192;28;20081;-77
2022/11/24 10:44:27;;;;;;;20.90;4.37;;;12.50;99.90;;;;;;5070609;28;20121;-78
2022/11/24 10:46:53;;;;;;;14.55;3.80;;;13.10;99.90;;;;;;5072141;28;20542;-78
2022/11/24 10:49:25;;;;;;;18.35;3.25;;;13.40;99.90;;;;;;5072074;28;20029;-78
2022/11/24 10:52:13;;;;;;;19.40;3.53;;;13.00;99.90;;;;;;5072355;28;20036;-77
2022/11/24 10:54:59;;;;;;;19.38;4.95;;;12.80;99.90;;;;;;5050958;28;20380;-77
2022/11/24 10:57:37;;;;;;;23.02;4.95;;;13.00;99.90;;;;;;5052315;28;20029;-77
2022/11/24 11:00:23;;;;;;;26.08;4.88;;;13.50;99.90;;;;;;5070997;28;20040;-78
2022/11/24 11:03:08;;;;;;;18.13;3.70;;;14.00;99.90;;;;;;5050299;28;20434;-77
2022/11/24 11:06:01;;;;;;;20.92;3.90;;;14.10;99.90;;;;;;5061815;28;20108;-78
2022/11/24 11:08:29;;;;;;;21.65;4.50;;;13.60;99.90;;;;;;5045587;28;20036;-78
2022/11/24 11:11:20;;;;;;;16.40;3.15;;;13.80;99.90;;;;;;5050111;28;20037;-78
2022/11/24 11:13:52;;;;;;;18.65;4.45;;;13.90;99.90;;;;;;5060044;28;20044;-78
2022/11/24 11:16:42;;;;;;;19.65;4.00;;;13.80;99.90;;;;;;5058412;28;20025;-78
2022/11/24 11:19:27;;;;;;;23.00;4.47;;;14.00;99.90;;;;;;5058534;28;20094;-78
2022/11/24 11:22:11;;;;;;;13.25;3.42;;;14.10;99.90;;;;;;5052676;28;20044;-76
2022/11/24 11:24:41;;;;;;;16.17;4.10;;;14.60;99.90;;;;;;5042257;28;20032;-76
2022/11/24 11:27:22;;;;;;;24.42;3.60;;;14.90;99.90;;;;;;5064613;28;20075;-76
2022/11/24 11:29:48;;;;;;;18.48;3.80;;;15.40;99.90;;;;;;5056977;28;20032;-77
2022/11/24 11:32:25;;;;;;;24.67;4.32;;;15.30;99.90;;;;;;5054579;28;20032;-77
2022/11/24 11:34:54;;;;;;;20.17;3.50;;;14.90;99.90;;;;;;5049039;28;20546;-76
2022/11/24 11:37:22;;;;;;;24.75;4.10;;;14.40;99.90;;;;;;5048489;28;20099;-76
2022/11/24 11:39:53;;;;;;;15.20;3.58;;;14.50;99.90;;;;;;5052612;28;20027;-76
2022/11/24 11:42:43;;;;;;;15.18;3.75;;;15.40;99.90;;;;;;5062282;28;20032;-76
2022/11/24 11:45:20;;;;;;;21.05;4.10;;;14.70;99.90;;;;;;5075424;28;20020;-77
2022/11/24 11:48:08;;;;;;;14.25;3.92;;;15.00;99.90;;;;;;5075595;28;20127;-76
2022/11/24 11:50:40;;;;;;;19.52;4.03;;;14.50;99.90;;;;;;5046553;28;20040;-76
2022/11/24 11:53:15;;;;;;;15.45;4.22;;;14.60;99.90;;;;;;5052859;28;20432;-76
2022/11/24 11:55:54;;;;;;;15.43;3.72;;;14.50;99.90;;;;;;5046686;28;20059;-78
2022/11/24 11:58:35;;;;;;;15.93;3.53;;;14.40;99.90;;;;;;5054354;28;20483;-77
2022/11/24 12:01:24;;;;;;;18.38;3.33;;;14.60;99.90;;;;;;5055862;28;20075;-77
2022/11/24 12:04:12;;;;;;;25.05;4.53;;;14.60;99.90;;;;;;5054301;28;20024;-77
2022/11/24 12:06:41;;;;;;;20.23;4.22;;;14.50;99.90;;;;;;5053748;28;20032;-76
2022/11/24 12:09:27;;;;;;;15.98;4.07;;;14.90;99.90;;;;;;5055453;28;20108;-76
2022/11/24 12:12:14;;;;;;;20.13;3.55;;;14.60;99.90;;;;;;5049103;28;20544;-76
2022/11/24 12:14:58;;;;;;;15.23;3.05;;;14.80;99.90;;;;;;5048518;28;20363;-76
2022/11/24 12:17:38;;;;;;;21.08;4.60;;;14.90;99.90;;;;;;5055661;28;20033;-76
2022/11/24 12:20:30;;;;;;;19.40;4.30;;;14.80;99.90;;;;;;5037298;28;20094;-75
2022/11/24 12:23:15;;;;;;;;;;;14.80;99.90;;;;;;5056011;28;20132;-76
2022/11/24 12:25:57;;;;;;;15.20;3.17;;;14.60;99.90;;;;;;5053782;28;19909;-77
2022/11/24 12:28:44;;;;;;;16.67;3.53;;;14.30;99.90;;;;;;5053776;28;20078;-76
2022/11/24 12:31:16;;;;;;;14.65;4.22;;;14.60;99.90;;;;;;5055361;28;20052;-77
2022/11/24 12:34:10;;;;;;;16.90;3.28;;;15.10;99.90;;;;;;5053862;28;20535;-76
2022/11/24 12:36:49;;;;;;;17.30;3.45;;;15.40;99.90;;;;;;5055045;28;20493;-76
2022/11/24 12:39:32;;;;;;;21.88;4.28;;;15.30;99.90;;;;;;5053799;28;20420;-76
2022/11/24 12:42:13;;;;;;;15.88;3.42;;;14.80;99.90;;;;;;5060507;28;20028;-76
2022/11/24 12:44:57;;;;;;;22.80;4.00;;;15.10;99.90;;;;;;5074024;28;20021;-76
2022/11/24 12:47:43;;;;;;;20.90;3.90;;;15.60;99.90;;;;;;5073558;28;20031;-75
2022/11/24 12:50:15;;;;;;;17.05;2.97;;;15.90;99.90;;;;;;5075085;28;20396;-76
2022/11/24 12:53:02;;;;;;;19.23;3.70;;;16.20;99.90;;;;;;5075146;28;20035;-76
2022/11/24 12:55:32;;;;;;;19.00;3.85;;;16.20;99.90;;;;;;5073344;28;20041;-76
2022/11/24 12:58:16;;;;;;;15.32;4.03;;;15.90;99.90;;;;;;5074188;28;20421;-76
2022/11/24 13:00:51;;;;;;;18.85;3.85;;;15.90;99.90;;;;;;5074802;28;20511;-76
2022/11/24 13:03:31;;;;;;;12.95;3.40;;;16.50;99.90;;;;;;5073778;28;20119;-76
2022/11/24 13:06:28;;;;;;;20.23;3.78;;;16.40;99.90;;;;;;5074742;28;20529;-76